Accueil
METAR-TAF:

METAR-TAF

Aéroports :

Tachkent, Ouzbékistan

Aéroport international de Tachkent

latitude: 41-16N, longitude: 069-16E, altitude: 489 m

Observation

Le bulletin a été fait il y a 38 minutes, à 23:30 UTC
Vent 4 kt de est
Température 2°C
Humidité 51%
Pression 1012 hPa
Visibilité 10 km ou plus
pas de nuages en-dessous de 1500 mètres et pas de cumulonimbus.

METAR: UTTT 222330Z 09004KT CAVOK 02/M07 Q1012 R08R/CLRD70 NOSIG

Heure: 05:08 (00:08 UTC)

Prévision

Le bulletin a été fait il y a 1 heure et 8 minutes, à 23:00 UTC
Prévision valable du 23 à 00 UTC au 23 à 24 UTC
Vent 10 kt de est/nord-est
Visibilité: 7000 m
Temporairement
du 23 à 00 UTC au 23 à 04 UTC
Visibilité: 3000 m
brume, fumée

TAF: UTTT 222300Z 2300/2324 06010KT 7000 NSC TEMPO 2300/2304 3000 BR FU

Observations et prévisions météorologiques de plus de 4000 aéroports (messages METAR et TAF).

Les stations disponibles sont représentées par des disques jaunes et rouges sur la carte.

Passer la souris dessus pour voir le nom de la station.

Cliquer dessus pour voir les observations et prévisions météorologiques.

Pour changer de carte: cliquez sur les boutons verts avec une croix noire pour zoomer, sur le bouton vert avec un tiret pour effectuer un zoom arrière, ou sur les flèches vertes pour les cartes adjacentes.


METAR-TAF: